メインページ
METAR-TAF:

METAR-TAF

空港 :

ダマスカス, シリア

ダマスカス国際空港

緯度: 33-25N, 経度: 036-31E, 海抜: 608m

現時点の気象観測

当レポートは5分前の05:00(UTC)に作成
西の風 4kt
気温 11°C
湿度 40%
気圧 1018 hPa
視程10km以上
1,500メートル以下は雲なし、積乱雲なし

METAR: OSDI 210500Z 28004KT CAVOK 11/M02 Q1018

時間: 08:05 (05:05 UTC)

予報

予報は21日の 00時(UTC)から 22日の 06時(UTC)まで有効
変向風 3kt
視程10km以上
1,500メートル以下は雲なし、積乱雲なし
21日の 09時(UTC)から 21日の 18時(UTC)まで一時的に
南西の風 10kt
視程10km以上
高度3000ftの雲はほとんどない

TAF: OSDI 2100/2206 VRB03KT CAVOK TEMPO 2109/2118 22010KT 9999 FEW030

4,000以上の空港の気象観測と天気予報(METAR報とTAF報)

利用可能な観測所は地図上に黄色い丸と赤い丸で示す。

丸の上にカーソルを重ねると観測所名を参照できる。

次にクリックすると気象観測と天気予報を参照できる。

マップの切り替え:黒色「×」印の緑ボタンをクリックして拡大、「-」印の緑ボタンをクリックして縮小、緑色の三角印をクリックして隣りの地図に切り替え


METAR-TAF: